createdAt,value
2022-11-23T00:00:09.000Z,35.8
2022-11-23T00:01:19.000Z,35.8
2022-11-23T00:02:29.000Z,35.8
2022-11-23T00:03:39.000Z,35.8
2022-11-23T00:04:50.000Z,35.8
2022-11-23T00:06:00.000Z,35.8
2022-11-23T00:07:10.313Z,35.8
2022-11-23T00:08:19.000Z,35.9
2022-11-23T00:09:29.563Z,35.8
2022-11-23T00:10:39.000Z,35.9
2022-11-23T00:11:49.000Z,35.9
2022-11-23T00:12:59.000Z,35.9
2022-11-23T00:14:10.027Z,35.9
2022-11-23T00:15:20.152Z,35.9
2022-11-23T00:16:30.000Z,35.9
2022-11-23T00:17:40.391Z,35.9
2022-11-23T00:18:50.498Z,35.9
2022-11-23T00:20:00.618Z,35.9
2022-11-23T00:21:10.000Z,35.9
2022-11-23T00:22:20.000Z,35.9
2022-11-23T00:23:29.000Z,35.9
2022-11-23T00:24:40.112Z,36
2022-11-23T00:25:50.221Z,36
2022-11-23T00:26:59.000Z,36
2022-11-23T00:28:09.000Z,36
2022-11-23T00:29:19.000Z,36
2022-11-23T00:30:29.000Z,36
2022-11-23T00:31:39.834Z,36
2022-11-23T00:32:49.948Z,36
2022-11-23T00:34:00.063Z,36
2022-11-23T00:36:20.000Z,36
2022-11-23T00:37:30.425Z,36
2022-11-23T00:38:40.000Z,36
2022-11-23T00:39:50.000Z,36
2022-11-23T00:41:00.769Z,36
2022-11-23T00:42:10.886Z,36.1
2022-11-23T00:43:20.032Z,36.1
2022-11-23T00:44:30.138Z,36.1
2022-11-23T00:45:40.266Z,36.1
2022-11-23T00:46:50.382Z,36.1
2022-11-23T00:48:00.000Z,36.1
2022-11-23T00:49:10.000Z,36.1
2022-11-23T00:50:20.000Z,36.1
2022-11-23T00:51:30.000Z,36.1
2022-11-23T00:52:40.000Z,36.1
2022-11-23T00:53:51.074Z,36.1
2022-11-23T00:55:01.000Z,36.1
2022-11-23T00:56:11.312Z,36.2
2022-11-23T00:57:21.000Z,36.2
2022-11-23T00:58:30.000Z,36.1
2022-11-23T00:59:40.000Z,36.2
2022-11-23T01:00:50.810Z,36.2
2022-11-23T01:02:00.000Z,36.2
2022-11-23T01:03:11.033Z,36.2
2022-11-23T01:04:21.168Z,36.2
2022-11-23T01:05:31.272Z,36.2
2022-11-23T01:06:41.000Z,36.2
2022-11-23T01:07:51.000Z,36.2
2022-11-23T01:09:01.621Z,36.2
2022-11-23T01:10:11.000Z,36.2
2022-11-23T01:11:21.000Z,36.3
2022-11-23T01:12:31.000Z,36.2
2022-11-23T01:13:42.000Z,36.3
2022-11-23T01:14:51.000Z,36.3
2022-11-23T01:16:01.345Z,36.3
2022-11-23T01:17:11.000Z,36.3
2022-11-23T01:18:21.000Z,36.3
2022-11-23T01:19:31.698Z,36.3
2022-11-23T01:20:41.000Z,36.3
2022-11-23T01:21:51.000Z,36.3
2022-11-23T01:23:02.000Z,36.3
2022-11-23T01:24:12.000Z,36.3
2022-11-23T01:25:22.282Z,36.3
2022-11-23T01:26:32.409Z,36.3
2022-11-23T01:27:42.000Z,36.3
2022-11-23T01:28:52.000Z,36.3
2022-11-23T01:30:01.000Z,36.3
2022-11-23T01:31:11.889Z,36.3
2022-11-23T01:32:22.013Z,36.3
2022-11-23T01:33:31.151Z,36.3
2022-11-23T01:34:40.000Z,36.4
2022-11-23T01:35:50.398Z,36.4
2022-11-23T01:36:59.549Z,36.4
2022-11-23T01:38:09.666Z,36.4
2022-11-23T01:39:18.000Z,36.4
2022-11-23T01:40:28.915Z,36.4
2022-11-23T01:41:39.036Z,36.4
2022-11-23T01:42:49.000Z,36.4
2022-11-23T01:43:59.000Z,36.4
2022-11-23T01:45:09.000Z,36.4
2022-11-23T01:46:19.000Z,36.4
2022-11-23T01:47:29.000Z,36.4
2022-11-23T01:48:39.736Z,36.4
2022-11-23T01:49:49.000Z,36.5
2022-11-23T01:50:59.972Z,36.5
2022-11-23T01:52:10.000Z,36.5
2022-11-23T01:53:20.202Z,36.5
2022-11-23T01:54:29.000Z,36.5
2022-11-23T01:55:39.456Z,36.5
2022-11-23T01:56:49.000Z,36.5
2022-11-23T01:57:59.000Z,36.5
2022-11-23T01:59:09.000Z,36.5
2022-11-23T02:00:19.924Z,36.5
2022-11-23T02:01:30.050Z,36.5
2022-11-23T02:02:40.161Z,36.5
2022-11-23T02:03:50.000Z,36.5
2022-11-23T02:05:00.000Z,36.5
2022-11-23T02:06:10.000Z,36.5
2022-11-23T02:07:20.000Z,36.5
2022-11-23T02:08:30.000Z,36.5
2022-11-23T02:09:39.000Z,36.5
2022-11-23T02:10:50.001Z,36.5
2022-11-23T02:12:00.115Z,36.5
2022-11-23T02:13:10.236Z,36.5
2022-11-23T02:15:29.000Z,36.6
2022-11-23T02:16:38.646Z,36.6
2022-11-23T02:17:47.779Z,36.6
2022-11-23T02:18:56.000Z,36.6
2022-11-23T02:20:06.058Z,36.6
2022-11-23T02:21:16.000Z,36.6
2022-11-23T02:22:26.000Z,36.6
2022-11-23T02:23:36.000Z,36.6
2022-11-23T02:24:46.000Z,36.6
2022-11-23T02:25:56.638Z,36.6
2022-11-23T02:27:06.000Z,36.6
2022-11-23T02:28:16.000Z,36.7
2022-11-23T02:29:27.010Z,36.6
2022-11-23T02:30:37.000Z,36.6
2022-11-23T02:31:47.000Z,36.6
2022-11-23T02:32:57.000Z,36.6
2022-11-23T02:34:07.463Z,36.7
2022-11-23T02:35:16.599Z,36.7
2022-11-23T02:36:26.000Z,36.7
2022-11-23T02:37:36.000Z,36.7
2022-11-23T02:38:46.952Z,36.7
2022-11-23T02:39:57.000Z,36.7
2022-11-23T02:41:07.000Z,36.7
2022-11-23T02:42:17.304Z,36.7
2022-11-23T02:43:27.000Z,36.7
2022-11-23T02:44:37.000Z,36.7
2022-11-23T02:45:50.000Z,36.7
2022-11-23T02:46:57.000Z,36.7
2022-11-23T02:48:07.889Z,36.7
2022-11-23T02:49:18.000Z,36.7
2022-11-23T02:50:27.140Z,36.7
2022-11-23T02:51:37.263Z,36.8
2022-11-23T02:52:47.000Z,36.7
2022-11-23T02:53:57.000Z,36.7
2022-11-23T02:55:07.000Z,36.7
2022-11-23T02:56:17.000Z,36.8
2022-11-23T02:57:27.000Z,36.8
2022-11-23T02:58:37.000Z,36.8
2022-11-23T02:59:48.000Z,36.8
2022-11-23T03:00:58.000Z,36.8
2022-11-23T03:02:08.000Z,36.8
2022-11-23T03:03:18.000Z,36.8
2022-11-23T03:04:28.549Z,36.8
2022-11-23T03:05:37.000Z,36.8
2022-11-23T03:06:47.000Z,36.8
2022-11-23T03:07:57.000Z,36.8
2022-11-23T03:09:08.036Z,36.8
2022-11-23T03:10:18.000Z,36.8
2022-11-23T03:11:28.000Z,36.8
2022-11-23T03:12:38.392Z,36.8
2022-11-23T03:13:48.000Z,36.8
2022-11-23T03:14:58.625Z,36.8
2022-11-23T03:16:08.000Z,36.8
2022-11-23T03:17:18.855Z,36.9
2022-11-23T03:18:28.972Z,36.9
2022-11-23T03:19:39.000Z,36.9
2022-11-23T03:20:48.000Z,36.9
2022-11-23T03:21:58.342Z,36.9
2022-11-23T03:23:08.000Z,36.9
2022-11-23T03:24:18.000Z,36.9
2022-11-23T03:25:28.000Z,36.9
2022-11-23T03:26:38.000Z,36.9
2022-11-23T03:27:48.000Z,36.9
2022-11-23T03:28:59.000Z,36.9
2022-11-23T03:30:09.000Z,36.9
2022-11-23T03:32:29.000Z,36.9
2022-11-23T03:33:39.000Z,37
2022-11-23T03:34:49.000Z,37
2022-11-23T03:35:58.769Z,36.9
2022-11-23T03:37:08.900Z,37
2022-11-23T03:39:29.000Z,36.9
2022-11-23T03:40:39.000Z,37
2022-11-23T03:41:49.000Z,36.9
2022-11-23T03:42:59.000Z,37
2022-11-23T03:44:09.593Z,37
2022-11-23T03:45:19.709Z,37
2022-11-23T03:46:29.000Z,37
2022-11-23T03:47:39.000Z,37
2022-11-23T03:48:50.065Z,37
2022-11-23T03:50:00.000Z,37
2022-11-23T03:51:09.000Z,37
2022-11-23T03:52:19.000Z,37
2022-11-23T03:53:29.564Z,37
2022-11-23T03:54:39.000Z,37.1
2022-11-23T03:55:49.000Z,37
2022-11-23T03:56:59.905Z,37
2022-11-23T03:58:10.000Z,37
2022-11-23T03:59:20.000Z,37.1
2022-11-23T04:00:30.000Z,37.1
2022-11-23T04:01:40.380Z,37.1
2022-11-23T04:02:50.000Z,37.1
2022-11-23T04:04:00.000Z,37.1
2022-11-23T04:05:10.000Z,37
2022-11-23T04:06:19.000Z,37.1
2022-11-23T04:07:29.000Z,37.1
2022-11-23T04:08:40.000Z,37
2022-11-23T04:09:50.217Z,37.1
2022-11-23T04:11:00.000Z,37.1
2022-11-23T04:12:10.453Z,37.1
2022-11-23T04:13:20.000Z,37.1
2022-11-23T04:14:30.701Z,37.1
2022-11-23T04:15:40.803Z,37.1
2022-11-23T04:16:50.000Z,37.1
2022-11-23T04:18:01.000Z,37.1
2022-11-23T04:19:11.000Z,37.1
2022-11-23T04:20:21.000Z,37.1
2022-11-23T04:21:31.000Z,37.1
2022-11-23T04:22:40.000Z,37.1
2022-11-23T04:23:50.000Z,37.1
2022-11-23T04:25:00.000Z,37.1
2022-11-23T04:26:10.885Z,37.1
2022-11-23T04:27:20.997Z,37.2
2022-11-23T04:28:31.000Z,37.2
2022-11-23T04:29:41.000Z,37.2
2022-11-23T04:30:51.000Z,37.2
2022-11-23T04:32:01.000Z,37.2
2022-11-23T04:33:11.000Z,37.2
2022-11-23T04:34:21.000Z,37.2
2022-11-23T04:35:31.816Z,37.2
2022-11-23T04:36:41.000Z,37.2
2022-11-23T04:37:51.000Z,37.2
2022-11-23T04:39:01.000Z,37.2
2022-11-23T04:40:11.000Z,37.2
2022-11-23T04:41:21.000Z,37.2
2022-11-23T04:42:31.000Z,37.2
2022-11-23T04:43:41.000Z,37.2
2022-11-23T04:44:51.777Z,37.2
2022-11-23T04:46:01.000Z,37.3
2022-11-23T04:47:12.000Z,37.3
2022-11-23T04:48:22.000Z,37.2
2022-11-23T04:49:32.242Z,37.3
2022-11-23T04:50:42.000Z,37.3
2022-11-23T04:51:52.000Z,37.3
2022-11-23T04:53:01.000Z,37.3
2022-11-23T04:54:11.000Z,37.3
2022-11-23T04:55:21.000Z,37.3
2022-11-23T04:56:31.000Z,37.3
2022-11-23T04:57:42.000Z,37.3
2022-11-23T04:58:52.000Z,37.3
2022-11-23T05:00:02.315Z,37.3
2022-11-23T05:01:12.445Z,37.3
2022-11-23T05:02:22.000Z,37.3
2022-11-23T05:03:32.000Z,37.3
2022-11-23T05:04:42.000Z,37.3
2022-11-23T05:05:52.906Z,37.3
2022-11-23T05:07:03.000Z,37.3
2022-11-23T05:08:12.162Z,37.3
2022-11-23T05:09:22.000Z,37.3
2022-11-23T05:10:32.391Z,37.3
2022-11-23T05:11:42.000Z,37.3
2022-11-23T05:12:52.626Z,37.3
2022-11-23T05:14:02.000Z,37.3
2022-11-23T05:15:12.000Z,37.3
2022-11-23T05:16:22.000Z,37.4
2022-11-23T05:18:43.000Z,37.4
2022-11-23T05:19:53.000Z,37.4
2022-11-23T05:21:03.452Z,37.4
2022-11-23T05:22:13.000Z,37.4
2022-11-23T05:23:22.000Z,37.4
2022-11-23T05:24:32.816Z,37.4
2022-11-23T05:25:42.000Z,37.4
2022-11-23T05:26:53.000Z,37.4
2022-11-23T05:28:03.176Z,37.4
2022-11-23T05:29:13.000Z,37.4
2022-11-23T05:30:23.000Z,37.4
2022-11-23T05:31:33.519Z,37.4
2022-11-23T05:32:43.000Z,37.4
2022-11-23T05:33:53.000Z,37.4
2022-11-23T05:35:03.000Z,37.4
2022-11-23T05:36:13.988Z,37.4
2022-11-23T05:37:24.000Z,37.4
2022-11-23T05:38:33.000Z,37.4
2022-11-23T05:39:43.000Z,37.4
2022-11-23T05:40:53.480Z,37.5
2022-11-23T05:42:03.590Z,37.5
2022-11-23T05:43:13.709Z,37.5
2022-11-23T05:44:23.000Z,37.5
2022-11-23T05:45:33.943Z,37.5
2022-11-23T05:46:44.000Z,37.5
2022-11-23T05:47:54.000Z,37.5
2022-11-23T05:49:04.309Z,37.5
2022-11-23T05:50:14.000Z,37.5
2022-11-23T05:51:24.000Z,37.5
2022-11-23T05:52:34.646Z,37.5
2022-11-23T05:53:43.780Z,37.5
2022-11-23T05:54:53.901Z,37.5
2022-11-23T05:56:03.000Z,37.5
2022-11-23T05:57:12.000Z,37.5
2022-11-23T05:58:21.000Z,37.5
2022-11-23T05:59:30.462Z,37.5
2022-11-23T06:00:40.000Z,37.7
2022-11-23T06:01:50.000Z,37.8
2022-11-23T06:03:00.000Z,37.9
2022-11-23T06:04:10.920Z,38
2022-11-23T06:05:21.000Z,38.3
2022-11-23T06:06:31.171Z,38.5
2022-11-23T06:07:41.277Z,38.6
2022-11-23T06:08:51.397Z,38.7
2022-11-23T06:10:01.000Z,38.7
2022-11-23T06:11:11.632Z,38.8
2022-11-23T06:12:21.000Z,38.8
2022-11-23T06:13:31.865Z,39
2022-11-23T06:14:41.000Z,39.2
2022-11-23T06:15:51.110Z,39.2
2022-11-23T06:17:01.000Z,39.3
2022-11-23T06:18:11.354Z,39.4
2022-11-23T06:19:21.000Z,39.3
2022-11-23T06:20:31.000Z,39.4
2022-11-23T06:21:41.000Z,39.4
2022-11-23T06:22:51.820Z,39.4
2022-11-23T06:24:01.000Z,39.6
2022-11-23T06:25:12.000Z,39.6
2022-11-23T06:27:32.296Z,39.7
2022-11-23T06:28:42.000Z,39.9
2022-11-23T06:29:51.542Z,39.9
2022-11-23T06:31:01.000Z,40
2022-11-23T06:32:11.776Z,40.1
2022-11-23T06:33:21.000Z,40.1
2022-11-23T06:34:32.010Z,40.1
2022-11-23T06:35:42.000Z,40.1
2022-11-23T06:36:52.000Z,40.1
2022-11-23T06:38:02.367Z,40.1
2022-11-23T06:39:12.483Z,40.1
2022-11-23T06:40:22.000Z,40.1
2022-11-23T06:41:32.000Z,40.2
2022-11-23T06:42:42.000Z,40.1
2022-11-23T06:43:52.948Z,40.1
2022-11-23T06:45:02.000Z,40.2
2022-11-23T06:46:12.000Z,40.3
2022-11-23T06:47:22.000Z,40.2
2022-11-23T06:48:32.000Z,40.2
2022-11-23T06:49:42.567Z,40.2
2022-11-23T06:50:52.679Z,40.2
2022-11-23T06:52:02.798Z,40.2
2022-11-23T06:53:12.918Z,40.3
2022-11-23T06:54:23.000Z,40.2
2022-11-23T06:55:33.000Z,40.3
2022-11-23T06:56:43.000Z,40.3
2022-11-23T06:57:53.388Z,40.2
2022-11-23T06:59:03.510Z,40.2
2022-11-23T07:00:13.620Z,40.3
2022-11-23T07:01:22.000Z,40.3
2022-11-23T07:02:32.872Z,40.3
2022-11-23T07:03:42.000Z,40.3
2022-11-23T07:04:53.000Z,40.3
2022-11-23T07:07:13.000Z,40.3
2022-11-23T07:08:23.000Z,40.3
2022-11-23T07:09:33.575Z,40.3
2022-11-23T07:10:43.000Z,40.3
2022-11-23T07:11:53.000Z,40.3
2022-11-23T07:13:03.000Z,40.3
2022-11-23T07:14:14.044Z,40.3
2022-11-23T07:15:24.000Z,40.3
2022-11-23T07:16:34.000Z,40.4
2022-11-23T07:17:43.000Z,40.3
2022-11-23T07:18:53.000Z,40.3
2022-11-23T07:20:03.000Z,40.3
2022-11-23T07:21:13.767Z,40.4
2022-11-23T07:22:23.000Z,40.2
2022-11-23T07:24:44.000Z,40.2
2022-11-23T07:25:54.236Z,40.4
2022-11-23T07:27:04.360Z,40.2
2022-11-23T07:28:14.000Z,40.2
2022-11-23T07:29:24.590Z,40.2
2022-11-23T07:30:34.000Z,40.2
2022-11-23T07:31:44.000Z,40.2
2022-11-23T07:34:04.084Z,40.4
2022-11-23T07:35:14.000Z,40.2
2022-11-23T07:36:24.309Z,40.2
2022-11-23T07:37:34.434Z,40.2
2022-11-23T07:38:44.000Z,40.4
2022-11-23T07:39:54.000Z,40.5
2022-11-23T07:41:04.791Z,40.7
2022-11-23T07:42:14.900Z,40.9
2022-11-23T07:43:25.016Z,40.7
2022-11-23T07:44:35.140Z,40.9
2022-11-23T07:45:45.249Z,40.7
2022-11-23T07:46:55.000Z,40.9
2022-11-23T07:48:05.000Z,41
2022-11-23T07:49:15.600Z,40.9
2022-11-23T07:50:24.000Z,40.9
2022-11-23T07:51:34.000Z,40.9
2022-11-23T07:52:44.000Z,40.9
2022-11-23T07:53:55.096Z,41.1
2022-11-23T07:56:15.325Z,41.3
2022-11-23T07:57:25.442Z,41.3
2022-11-23T07:58:35.000Z,41.1
2022-11-23T07:59:45.000Z,41.1
2022-11-23T08:00:55.800Z,41.1
2022-11-23T08:02:05.000Z,41.3
2022-11-23T08:03:16.000Z,41.1
2022-11-23T08:05:36.264Z,41.3
2022-11-23T08:06:46.000Z,41.4
2022-11-23T08:07:56.512Z,41.3
2022-11-23T08:09:05.649Z,41.3
2022-11-23T08:10:15.000Z,41.3
2022-11-23T08:11:25.883Z,41.3
2022-11-23T08:12:35.000Z,41.4
2022-11-23T08:13:46.000Z,41.4
2022-11-23T08:14:56.221Z,41.9
2022-11-23T08:16:06.000Z,41.8
2022-11-23T08:17:15.000Z,41.8
2022-11-23T08:18:25.000Z,41.6
2022-11-23T08:19:35.000Z,41.5
2022-11-23T08:20:45.000Z,41.5
2022-11-23T08:23:06.064Z,41.4
2022-11-23T08:24:16.185Z,41.3
2022-11-23T08:25:26.296Z,41.4
2022-11-23T08:26:36.000Z,41.4
2022-11-23T08:27:46.000Z,41.4
2022-11-23T08:28:56.653Z,41.5
2022-11-23T08:30:06.773Z,41.5
2022-11-23T08:31:16.892Z,41.4
2022-11-23T08:32:26.032Z,41.4
2022-11-23T08:34:46.265Z,41.5
2022-11-23T08:35:56.372Z,41.5
2022-11-23T08:37:06.499Z,41.5
2022-11-23T08:38:16.622Z,41.4
2022-11-23T08:39:26.000Z,41.5
2022-11-23T08:40:36.000Z,41.5
2022-11-23T08:41:46.000Z,41.5
2022-11-23T08:42:57.000Z,41.4
2022-11-23T08:44:07.194Z,41.5
2022-11-23T08:46:27.432Z,41.4
2022-11-23T08:47:36.000Z,41.4
2022-11-23T08:48:45.713Z,41.4
2022-11-23T08:49:55.000Z,41.4
2022-11-23T08:51:05.000Z,41.5
2022-11-23T08:52:16.000Z,41.5
2022-11-23T08:53:26.000Z,41.5
2022-11-23T08:54:36.294Z,41.4
2022-11-23T08:55:46.411Z,41.4
2022-11-23T08:56:56.000Z,41.3
2022-11-23T08:58:06.655Z,41.3
2022-11-23T08:59:16.761Z,41.4
2022-11-23T09:01:36.000Z,41.3
2022-11-23T09:03:55.278Z,41.3
2022-11-23T09:05:04.431Z,41.2
2022-11-23T09:06:13.548Z,41.2
2022-11-23T09:07:23.000Z,41.1
2022-11-23T09:08:33.000Z,41.1
2022-11-23T09:09:43.000Z,41.2
2022-11-23T09:10:54.000Z,41.1
2022-11-23T09:12:04.000Z,41.1
2022-11-23T09:13:14.263Z,41.2
2022-11-23T09:15:34.501Z,41.1
2022-11-23T09:17:54.722Z,41.2
2022-11-23T09:19:04.839Z,41.2
2022-11-23T09:20:14.963Z,41.2
2022-11-23T09:21:24.000Z,41.2
2022-11-23T09:22:34.215Z,41.3
2022-11-23T09:23:44.000Z,41.1
2022-11-23T09:24:54.000Z,41.1
2022-11-23T09:26:07.000Z,41.1
2022-11-23T09:27:14.000Z,41.1
2022-11-23T09:28:24.000Z,41.1
2022-11-23T09:29:34.000Z,41.1
2022-11-23T09:30:45.030Z,41.1
2022-11-23T09:31:55.000Z,41
2022-11-23T09:33:05.000Z,41
2022-11-23T09:34:15.376Z,41
2022-11-23T09:35:25.000Z,41
2022-11-23T09:36:34.624Z,41
2022-11-23T09:37:44.000Z,41.3
2022-11-23T09:38:54.000Z,41
2022-11-23T09:40:04.000Z,41.1
2022-11-23T09:41:13.000Z,41.1
2022-11-23T09:42:23.000Z,41
2022-11-23T09:44:43.000Z,40.9
2022-11-23T09:45:53.000Z,40.7
2022-11-23T09:47:03.721Z,40.7
2022-11-23T09:48:13.000Z,40.7
2022-11-23T09:49:23.960Z,40.7
2022-11-23T09:50:34.071Z,40.7
2022-11-23T09:51:44.196Z,40.7
2022-11-23T09:52:54.309Z,40.7
2022-11-23T09:54:04.000Z,40.7
2022-11-23T09:55:14.000Z,40.8
2022-11-23T09:56:23.674Z,40.8
2022-11-23T09:57:33.794Z,40.8
2022-11-23T09:58:43.908Z,40.7
2022-11-23T09:59:54.000Z,40.8
2022-11-23T10:01:04.141Z,40.7
2022-11-23T10:02:14.000Z,40.7
2022-11-23T10:03:24.000Z,40.7
2022-11-23T10:04:34.497Z,40.7
2022-11-23T10:05:43.640Z,40.7
2022-11-23T10:08:02.883Z,40.6
2022-11-23T10:09:13.000Z,40.6
2022-11-23T10:10:23.000Z,40.5
2022-11-23T10:11:33.238Z,40.5
2022-11-23T10:12:43.356Z,40.5
2022-11-23T10:13:53.000Z,40.4
2022-11-23T10:15:03.000Z,40.3
2022-11-23T10:17:23.823Z,40.3
2022-11-23T10:18:33.949Z,40.2
2022-11-23T10:19:44.000Z,40.1
2022-11-23T10:20:54.000Z,40.1
2022-11-23T10:22:03.000Z,40
2022-11-23T10:23:13.000Z,40
2022-11-23T10:24:23.000Z,40
2022-11-23T10:25:33.655Z,39.9
2022-11-23T10:26:43.000Z,39.8
2022-11-23T10:27:53.000Z,39.7
2022-11-23T10:29:04.001Z,39.7
2022-11-23T10:31:24.235Z,39.7
2022-11-23T10:32:34.353Z,39.6
2022-11-23T10:33:43.000Z,39.6
2022-11-23T10:34:52.639Z,39.5
2022-11-23T10:36:01.780Z,39.5
2022-11-23T10:37:10.906Z,39.5
2022-11-23T10:38:21.000Z,39.4
2022-11-23T10:39:31.137Z,39.3
2022-11-23T10:40:41.000Z,39.3
2022-11-23T10:43:01.496Z,39.2
2022-11-23T10:44:11.000Z,39.1
2022-11-23T10:45:21.723Z,38.9
2022-11-23T10:46:31.000Z,38.8
2022-11-23T10:47:41.000Z,38.7
2022-11-23T10:48:52.000Z,38.6
2022-11-23T10:50:02.000Z,38.6
2022-11-23T10:51:12.312Z,38.5
2022-11-23T10:52:21.000Z,38.4
2022-11-23T10:53:31.000Z,38.4
2022-11-23T10:54:41.000Z,38.3
2022-11-23T10:55:51.000Z,38.4
2022-11-23T10:57:01.899Z,38.4
2022-11-23T10:58:12.000Z,38.4
2022-11-23T10:59:22.000Z,38.3
2022-11-23T11:00:32.000Z,38.2
2022-11-23T11:01:42.368Z,38.2
2022-11-23T11:02:52.000Z,38.1
2022-11-23T11:04:02.000Z,38.2
2022-11-23T11:05:12.000Z,38.2
2022-11-23T11:06:22.000Z,38.1
2022-11-23T11:07:31.972Z,38
2022-11-23T11:08:42.000Z,38
2022-11-23T11:09:52.000Z,37.9
2022-11-23T11:11:02.323Z,37.9
2022-11-23T11:12:12.433Z,37.7
2022-11-23T11:13:22.551Z,37.7
2022-11-23T11:14:32.000Z,37.7
2022-11-23T11:15:42.000Z,37.6
2022-11-23T11:16:52.908Z,37.6
2022-11-23T11:18:03.019Z,37.6
2022-11-23T11:19:13.000Z,37.4
2022-11-23T11:20:23.000Z,37.4
2022-11-23T11:21:33.000Z,37.6
2022-11-23T11:22:42.000Z,37.6
2022-11-23T11:23:52.000Z,37.6
2022-11-23T11:25:02.000Z,37.7
2022-11-23T11:26:12.851Z,37.6
2022-11-23T11:27:22.000Z,37.5
2022-11-23T11:28:33.101Z,37.4
2022-11-23T11:29:43.000Z,37.5
2022-11-23T11:30:53.336Z,37.5
2022-11-23T11:32:03.436Z,37.4
2022-11-23T11:33:13.000Z,37.4
2022-11-23T11:34:23.676Z,37.3
2022-11-23T11:35:33.000Z,37.3
2022-11-23T11:36:43.902Z,37.2
2022-11-23T11:37:53.000Z,37.3
2022-11-23T11:39:03.155Z,37.2
2022-11-23T11:40:13.000Z,37.1
2022-11-23T11:42:33.505Z,37
2022-11-23T11:43:43.000Z,37
2022-11-23T11:44:53.000Z,37
2022-11-23T11:46:03.000Z,37.1
2022-11-23T11:47:13.000Z,36.9
2022-11-23T11:48:24.000Z,36.9
2022-11-23T11:49:34.000Z,36.9
2022-11-23T11:50:44.000Z,36.8
2022-11-23T11:53:04.000Z,36.7
2022-11-23T11:54:13.000Z,36.7
2022-11-23T11:55:23.820Z,36.6
2022-11-23T11:56:33.000Z,36.6
2022-11-23T11:57:44.042Z,36.6
2022-11-23T11:58:54.000Z,36.4
2022-11-23T12:00:04.287Z,36.4
2022-11-23T12:01:14.400Z,36.4
2022-11-23T12:02:24.519Z,36
2022-11-23T12:03:34.637Z,35.8
2022-11-23T12:04:44.743Z,36
2022-11-23T12:05:54.860Z,36
2022-11-23T12:07:04.000Z,36.1
2022-11-23T12:08:15.000Z,36.1
2022-11-23T12:09:24.219Z,36
2022-11-23T12:10:34.345Z,36
2022-11-23T12:11:43.492Z,36
2022-11-23T12:12:53.592Z,35.9
2022-11-23T12:14:03.000Z,35.7
2022-11-23T12:15:26.000Z,35.7
2022-11-23T12:16:36.000Z,35.7
2022-11-23T12:17:46.000Z,35.7
2022-11-23T12:18:44.000Z,35.7
2022-11-23T12:19:54.302Z,35.6
2022-11-23T12:21:04.417Z,35.5
2022-11-23T12:22:14.000Z,35.5
2022-11-23T12:23:24.000Z,35.5
2022-11-23T12:24:34.000Z,35.5
2022-11-23T12:25:44.000Z,35.7
2022-11-23T12:26:55.000Z,35.7
2022-11-23T12:28:04.000Z,35.7
2022-11-23T12:29:14.000Z,35.7
2022-11-23T12:30:24.000Z,35.7
2022-11-23T12:31:34.000Z,35.7
2022-11-23T12:32:44.591Z,35.7
2022-11-23T12:33:54.000Z,35.5
2022-11-23T12:35:04.000Z,35.5
2022-11-23T12:36:14.000Z,35.5
2022-11-23T12:37:25.000Z,35.5
2022-11-23T12:39:45.000Z,35.5
2022-11-23T12:40:55.000Z,35.7
2022-11-23T12:42:04.000Z,35.5
2022-11-23T12:43:13.687Z,35.5
2022-11-23T12:44:23.000Z,35.4
2022-11-23T12:45:32.944Z,35.3
2022-11-23T12:46:42.000Z,35.3
2022-11-23T12:47:52.000Z,35
2022-11-23T12:49:02.000Z,35
2022-11-23T12:50:12.437Z,35
2022-11-23T12:51:22.000Z,35
2022-11-23T12:52:32.661Z,34.9
2022-11-23T12:53:42.000Z,34.9
2022-11-23T12:54:52.000Z,34.8
2022-11-23T12:56:03.000Z,34.7
2022-11-23T12:57:13.000Z,34.7
2022-11-23T12:58:23.000Z,34.7
2022-11-23T12:59:33.367Z,34.7
2022-11-23T13:00:43.479Z,34.7
2022-11-23T13:01:52.000Z,34.6
2022-11-23T13:03:02.728Z,34.5
2022-11-23T13:04:12.000Z,34.5
2022-11-23T13:05:22.000Z,34.5
2022-11-23T13:06:33.073Z,34.6
2022-11-23T13:07:43.188Z,34.5
2022-11-23T13:08:53.303Z,34.5
2022-11-23T13:10:02.000Z,34.5
2022-11-23T13:11:11.585Z,34.4
2022-11-23T13:12:20.000Z,34.5
2022-11-23T13:13:29.000Z,34.4
2022-11-23T13:14:39.975Z,34.4
2022-11-23T13:15:50.000Z,34.4
2022-11-23T13:17:00.000Z,34.4
2022-11-23T13:18:10.000Z,34.4
2022-11-23T13:19:20.438Z,34.3
2022-11-23T13:20:30.000Z,34.3
2022-11-23T13:21:40.672Z,34.3
2022-11-23T13:22:50.000Z,34.2
2022-11-23T13:25:11.022Z,34.2
2022-11-23T13:26:21.146Z,34.2
2022-11-23T13:27:31.000Z,34.2
2022-11-23T13:28:40.000Z,34.1
2022-11-23T13:29:50.000Z,34.1
2022-11-23T13:31:00.000Z,34.1
2022-11-23T13:32:10.737Z,34.1
2022-11-23T13:33:20.859Z,34
2022-11-23T13:34:30.000Z,34
2022-11-23T13:35:41.000Z,34
2022-11-23T13:36:51.211Z,34
2022-11-23T13:38:00.351Z,34.1
2022-11-23T13:39:09.482Z,34
2022-11-23T13:40:18.000Z,34
2022-11-23T13:41:27.762Z,33.9
2022-11-23T13:42:37.872Z,33.9
2022-11-23T13:43:48.000Z,33.8
2022-11-23T13:44:58.000Z,33.9
2022-11-23T13:46:11.000Z,33.9
2022-11-23T13:47:18.000Z,33.9
2022-11-23T13:48:28.000Z,33.9
2022-11-23T13:49:38.000Z,33.8
2022-11-23T13:50:48.690Z,33.7
2022-11-23T13:51:58.000Z,33.7
2022-11-23T13:53:08.930Z,33.7
2022-11-23T13:54:19.000Z,33.7
2022-11-23T13:55:29.000Z,33.7
2022-11-23T13:56:38.000Z,33.7
2022-11-23T13:57:48.408Z,33.6
2022-11-23T13:58:58.000Z,33.6
2022-11-23T14:00:08.000Z,33.6
2022-11-23T14:01:18.761Z,33.6
2022-11-23T14:02:28.000Z,33.6
2022-11-23T14:03:39.000Z,33.6
2022-11-23T14:04:48.151Z,33.5
2022-11-23T14:05:58.000Z,33.5
2022-11-23T14:07:07.000Z,33.5
2022-11-23T14:08:16.000Z,33.5
2022-11-23T14:09:26.644Z,33.5
2022-11-23T14:10:36.000Z,33.4
2022-11-23T14:11:46.000Z,33.4
2022-11-23T14:12:57.000Z,33.3
2022-11-23T14:14:07.126Z,33.3
2022-11-23T14:15:17.000Z,33.3
2022-11-23T14:16:27.000Z,33.3
2022-11-23T14:17:37.000Z,33.3
2022-11-23T14:18:47.000Z,33.3
2022-11-23T14:19:57.000Z,33.3
2022-11-23T14:21:07.000Z,33.3
2022-11-23T14:22:17.000Z,33.3
2022-11-23T14:24:37.000Z,33.2
2022-11-23T14:25:47.000Z,33.2
2022-11-23T14:26:57.410Z,33.2
2022-11-23T14:28:07.532Z,33.1
2022-11-23T14:29:17.653Z,33.2
2022-11-23T14:30:27.000Z,33.2
2022-11-23T14:31:37.000Z,33.2
2022-11-23T14:32:47.022Z,33.1
2022-11-23T14:33:56.155Z,33.1
2022-11-23T14:35:05.000Z,33.2
2022-11-23T14:36:15.000Z,33.1
2022-11-23T14:37:24.549Z,33.2
2022-11-23T14:38:34.663Z,33.1
2022-11-23T14:39:44.000Z,33.1
2022-11-23T14:40:54.897Z,33.1
2022-11-23T14:42:05.021Z,33.1
2022-11-23T14:43:15.000Z,33.1
2022-11-23T14:44:25.251Z,33.1
2022-11-23T14:45:35.000Z,33.1
2022-11-23T14:46:45.485Z,33.1
2022-11-23T14:47:55.000Z,33.1
2022-11-23T14:49:05.720Z,33.1
2022-11-23T14:50:15.000Z,33.1
2022-11-23T14:51:25.000Z,33.1
2022-11-23T14:52:35.000Z,33.1
2022-11-23T14:53:45.197Z,33.1
2022-11-23T14:54:55.000Z,33.1
2022-11-23T14:56:05.000Z,33.1
2022-11-23T14:57:15.000Z,33.1
2022-11-23T14:58:25.679Z,33.1
2022-11-23T14:59:35.000Z,33.1
2022-11-23T15:00:45.901Z,33.1
2022-11-23T15:01:56.024Z,33.1
2022-11-23T15:03:06.000Z,33.1
2022-11-23T15:04:16.000Z,33.1
2022-11-23T15:05:26.000Z,33.1
2022-11-23T15:06:36.000Z,33.1
2022-11-23T15:07:45.615Z,33.1
2022-11-23T15:08:55.000Z,33.1
2022-11-23T15:10:05.000Z,33.1
2022-11-23T15:11:15.000Z,33
2022-11-23T15:12:26.087Z,33
2022-11-23T15:13:36.000Z,33
2022-11-23T15:14:46.313Z,33
2022-11-23T15:15:56.443Z,33
2022-11-23T15:17:06.550Z,33
2022-11-23T15:18:16.673Z,33
2022-11-23T15:19:26.785Z,32.9
2022-11-23T15:21:47.000Z,32.9
2022-11-23T15:22:56.148Z,32.9
2022-11-23T15:24:06.268Z,32.9
2022-11-23T15:25:16.000Z,32.9
2022-11-23T15:26:26.000Z,32.9
2022-11-23T15:27:36.000Z,32.9
2022-11-23T15:28:46.746Z,32.9
2022-11-23T15:31:06.981Z,32.8
2022-11-23T15:32:17.000Z,32.9
2022-11-23T15:34:37.000Z,32.9
2022-11-23T15:35:46.468Z,32.8
2022-11-23T15:36:55.591Z,32.9
2022-11-23T15:38:05.719Z,32.9
2022-11-23T15:39:15.000Z,32.9
2022-11-23T15:40:25.949Z,32.9
2022-11-23T15:41:36.000Z,32.9
2022-11-23T15:42:46.000Z,32.9
2022-11-23T15:43:56.289Z,32.8
2022-11-23T15:45:06.000Z,32.8
2022-11-23T15:46:16.000Z,32.8
2022-11-23T15:47:26.000Z,32.8
2022-11-23T15:48:35.000Z,32.9
2022-11-23T15:49:44.933Z,32.9
2022-11-23T15:50:55.043Z,32.9
2022-11-23T15:52:05.166Z,32.9
2022-11-23T15:53:15.000Z,32.9
2022-11-23T15:54:25.385Z,33
2022-11-23T15:55:35.507Z,33
2022-11-23T15:56:45.000Z,33.1
2022-11-23T15:57:55.734Z,33.1
2022-11-23T15:59:05.859Z,33.1
2022-11-23T16:00:15.000Z,33.2
2022-11-23T16:01:26.098Z,33.2
2022-11-23T16:02:36.000Z,33.2
2022-11-23T16:03:46.000Z,33.2
2022-11-23T16:04:55.468Z,33.3
2022-11-23T16:06:05.585Z,33.3
2022-11-23T16:07:14.000Z,33.3
2022-11-23T16:08:24.000Z,33.3
2022-11-23T16:09:34.000Z,33.3
2022-11-23T16:10:45.055Z,33.4
2022-11-23T16:11:55.170Z,33.4
2022-11-23T16:13:04.000Z,33.4